sensor_id;sensor_type;location;lat;lon;timestamp;P1;durP1;ratioP1;P2;durP2;ratioP2
81841;SDS011;71284;50.918;7.092;2023-08-24T00:02:03;5.23;;;3.63;;
81841;SDS011;71284;50.918;7.092;2023-08-24T00:04:30;6.13;;;3.70;;
81841;SDS011;71284;50.918;7.092;2023-08-24T00:06:56;9.93;;;4.50;;
81841;SDS011;71284;50.918;7.092;2023-08-24T00:09:23;7.03;;;4.40;;
81841;SDS011;71284;50.918;7.092;2023-08-24T00:11:49;11.10;;;3.63;;
81841;SDS011;71284;50.918;7.092;2023-08-24T00:14:16;7.30;;;3.50;;
81841;SDS011;71284;50.918;7.092;2023-08-24T00:16:43;11.00;;;3.87;;
81841;SDS011;71284;50.918;7.092;2023-08-24T00:19:09;6.27;;;3.80;;
81841;SDS011;71284;50.918;7.092;2023-08-24T00:21:36;10.83;;;4.23;;
81841;SDS011;71284;50.918;7.092;2023-08-24T00:24:02;11.10;;;4.53;;
81841;SDS011;71284;50.918;7.092;2023-08-24T00:26:29;12.77;;;4.57;;
81841;SDS011;71284;50.918;7.092;2023-08-24T00:28:56;8.03;;;4.33;;
81841;SDS011;71284;50.918;7.092;2023-08-24T00:31:22;8.20;;;3.90;;
81841;SDS011;71284;50.918;7.092;2023-08-24T00:33:49;9.50;;;5.00;;
81841;SDS011;71284;50.918;7.092;2023-08-24T00:36:16;7.00;;;3.90;;
81841;SDS011;71284;50.918;7.092;2023-08-24T00:38:43;10.00;;;4.67;;
81841;SDS011;71284;50.918;7.092;2023-08-24T00:41:10;12.03;;;3.97;;
81841;SDS011;71284;50.918;7.092;2023-08-24T00:43:36;3.63;;;3.37;;
81841;SDS011;71284;50.918;7.092;2023-08-24T00:46:03;16.13;;;4.13;;
81841;SDS011;71284;50.918;7.092;2023-08-24T00:48:30;4.80;;;4.00;;
81841;SDS011;71284;50.918;7.092;2023-08-24T00:50:57;4.40;;;3.67;;
81841;SDS011;71284;50.918;7.092;2023-08-24T00:53:25;7.13;;;3.90;;
81841;SDS011;71284;50.918;7.092;2023-08-24T00:55:51;6.20;;;4.60;;
81841;SDS011;71284;50.918;7.092;2023-08-24T00:58:18;3.87;;;3.30;;
81841;SDS011;71284;50.918;7.092;2023-08-24T01:00:44;8.73;;;3.80;;
81841;SDS011;71284;50.918;7.092;2023-08-24T01:03:11;3.63;;;3.30;;
81841;SDS011;71284;50.918;7.092;2023-08-24T01:05:38;4.30;;;3.60;;
81841;SDS011;71284;50.918;7.092;2023-08-24T01:08:04;7.90;;;4.03;;
81841;SDS011;71284;50.918;7.092;2023-08-24T01:10:36;13.33;;;4.63;;
81841;SDS011;71284;50.918;7.092;2023-08-24T01:13:07;5.07;;;3.97;;
81841;SDS011;71284;50.918;7.092;2023-08-24T01:15:43;8.40;;;4.40;;
81841;SDS011;71284;50.918;7.092;2023-08-24T01:18:11;6.03;;;3.83;;
81841;SDS011;71284;50.918;7.092;2023-08-24T01:20:32;4.53;;;3.30;;
81841;SDS011;71284;50.918;7.092;2023-08-24T01:23:04;15.03;;;4.50;;
81841;SDS011;71284;50.918;7.092;2023-08-24T01:25:49;5.90;;;4.50;;
81841;SDS011;71284;50.918;7.092;2023-08-24T01:28:17;26.90;;;4.27;;
81841;SDS011;71284;50.918;7.092;2023-08-24T01:30:44;7.20;;;4.20;;
81841;SDS011;71284;50.918;7.092;2023-08-24T01:33:10;7.10;;;3.80;;
81841;SDS011;71284;50.918;7.092;2023-08-24T01:35:37;3.87;;;3.57;;
81841;SDS011;71284;50.918;7.092;2023-08-24T01:38:04;5.30;;;4.87;;
81841;SDS011;71284;50.918;7.092;2023-08-24T01:40:36;4.27;;;3.80;;
81841;SDS011;71284;50.918;7.092;2023-08-24T01:43:02;11.67;;;4.50;;
81841;SDS011;71284;50.918;7.092;2023-08-24T01:45:29;11.70;;;4.40;;
81841;SDS011;71284;50.918;7.092;2023-08-24T01:47:55;9.43;;;3.80;;
81841;SDS011;71284;50.918;7.092;2023-08-24T01:50:22;4.40;;;4.00;;
81841;SDS011;71284;50.918;7.092;2023-08-24T01:52:49;9.30;;;4.60;;
81841;SDS011;71284;50.918;7.092;2023-08-24T01:55:17;4.60;;;4.20;;
81841;SDS011;71284;50.918;7.092;2023-08-24T01:57:43;8.13;;;4.50;;
81841;SDS011;71284;50.918;7.092;2023-08-24T02:00:10;6.30;;;4.73;;
81841;SDS011;71284;50.918;7.092;2023-08-24T02:02:37;7.30;;;4.97;;
81841;SDS011;71284;50.918;7.092;2023-08-24T02:05:03;5.90;;;4.03;;
81841;SDS011;71284;50.918;7.092;2023-08-24T02:07:30;7.27;;;4.57;;
81841;SDS011;71284;50.918;7.092;2023-08-24T02:09:57;5.60;;;4.17;;
81841;SDS011;71284;50.918;7.092;2023-08-24T02:12:23;5.37;;;4.87;;
81841;SDS011;71284;50.918;7.092;2023-08-24T02:14:50;9.20;;;4.20;;
81841;SDS011;71284;50.918;7.092;2023-08-24T02:17:17;6.97;;;4.53;;
81841;SDS011;71284;50.918;7.092;2023-08-24T02:19:43;5.23;;;4.10;;
81841;SDS011;71284;50.918;7.092;2023-08-24T02:22:10;6.87;;;3.60;;
81841;SDS011;71284;50.918;7.092;2023-08-24T02:24:36;12.13;;;4.37;;
81841;SDS011;71284;50.918;7.092;2023-08-24T02:27:03;5.83;;;4.30;;
81841;SDS011;71284;50.918;7.092;2023-08-24T02:29:30;8.83;;;4.43;;
81841;SDS011;71284;50.918;7.092;2023-08-24T02:31:56;11.00;;;4.37;;
81841;SDS011;71284;50.918;7.092;2023-08-24T02:34:23;6.30;;;4.50;;
81841;SDS011;71284;50.918;7.092;2023-08-24T02:36:49;5.93;;;4.20;;
81841;SDS011;71284;50.918;7.092;2023-08-24T02:39:16;7.13;;;4.40;;
81841;SDS011;71284;50.918;7.092;2023-08-24T02:41:43;7.87;;;4.60;;
81841;SDS011;71284;50.918;7.092;2023-08-24T02:44:09;9.60;;;4.60;;
81841;SDS011;71284;50.918;7.092;2023-08-24T02:46:36;9.80;;;3.73;;
81841;SDS011;71284;50.918;7.092;2023-08-24T02:49:02;11.77;;;4.90;;
81841;SDS011;71284;50.918;7.092;2023-08-24T02:51:29;4.70;;;4.23;;
81841;SDS011;71284;50.918;7.092;2023-08-24T02:53:56;8.13;;;4.30;;
81841;SDS011;71284;50.918;7.092;2023-08-24T02:56:22;14.53;;;4.40;;
81841;SDS011;71284;50.918;7.092;2023-08-24T02:58:49;6.33;;;4.57;;
81841;SDS011;71284;50.918;7.092;2023-08-24T03:01:15;5.63;;;4.03;;
81841;SDS011;71284;50.918;7.092;2023-08-24T03:03:42;6.13;;;4.50;;
81841;SDS011;71284;50.918;7.092;2023-08-24T03:06:08;5.73;;;4.10;;
81841;SDS011;71284;50.918;7.092;2023-08-24T03:08:35;3.93;;;3.60;;
81841;SDS011;71284;50.918;7.092;2023-08-24T03:11:02;6.17;;;3.67;;
81841;SDS011;71284;50.918;7.092;2023-08-24T03:13:28;6.90;;;4.50;;
81841;SDS011;71284;50.918;7.092;2023-08-24T03:15:55;4.17;;;3.83;;
81841;SDS011;71284;50.918;7.092;2023-08-24T03:18:21;6.27;;;4.00;;
81841;SDS011;71284;50.918;7.092;2023-08-24T03:20:48;7.27;;;4.07;;
81841;SDS011;71284;50.918;7.092;2023-08-24T03:23:15;7.07;;;4.30;;
81841;SDS011;71284;50.918;7.092;2023-08-24T03:25:41;9.17;;;4.03;;
81841;SDS011;71284;50.918;7.092;2023-08-24T03:28:09;3.83;;;3.63;;
81841;SDS011;71284;50.918;7.092;2023-08-24T03:30:35;7.07;;;5.13;;
81841;SDS011;71284;50.918;7.092;2023-08-24T03:33:01;5.27;;;4.77;;
81841;SDS011;71284;50.918;7.092;2023-08-24T03:35:29;9.80;;;4.47;;
81841;SDS011;71284;50.918;7.092;2023-08-24T03:37:54;5.00;;;4.47;;
81841;SDS011;71284;50.918;7.092;2023-08-24T03:40:21;9.53;;;4.80;;
81841;SDS011;71284;50.918;7.092;2023-08-24T03:42:47;7.30;;;4.17;;
81841;SDS011;71284;50.918;7.092;2023-08-24T03:45:14;5.33;;;4.27;;
81841;SDS011;71284;50.918;7.092;2023-08-24T03:47:41;8.43;;;4.20;;
81841;SDS011;71284;50.918;7.092;2023-08-24T03:50:07;7.23;;;4.40;;
81841;SDS011;71284;50.918;7.092;2023-08-24T03:52:34;5.80;;;4.40;;
81841;SDS011;71284;50.918;7.092;2023-08-24T03:55:00;7.27;;;4.80;;
81841;SDS011;71284;50.918;7.092;2023-08-24T03:57:27;10.83;;;4.70;;
81841;SDS011;71284;50.918;7.092;2023-08-24T03:59:54;6.77;;;4.10;;
81841;SDS011;71284;50.918;7.092;2023-08-24T04:02:20;7.17;;;4.20;;
81841;SDS011;71284;50.918;7.092;2023-08-24T04:04:47;5.10;;;3.93;;
81841;SDS011;71284;50.918;7.092;2023-08-24T04:07:13;10.47;;;4.50;;
81841;SDS011;71284;50.918;7.092;2023-08-24T04:09:40;4.03;;;3.73;;
81841;SDS011;71284;50.918;7.092;2023-08-24T04:12:07;7.10;;;4.40;;
81841;SDS011;71284;50.918;7.092;2023-08-24T04:14:33;5.97;;;4.30;;
81841;SDS011;71284;50.918;7.092;2023-08-24T04:17:00;16.73;;;4.63;;
81841;SDS011;71284;50.918;7.092;2023-08-24T04:19:27;4.80;;;4.40;;
81841;SDS011;71284;50.918;7.092;2023-08-24T04:21:53;9.87;;;4.60;;
81841;SDS011;71284;50.918;7.092;2023-08-24T04:24:20;4.10;;;3.27;;
81841;SDS011;71284;50.918;7.092;2023-08-24T04:26:46;6.60;;;4.77;;
81841;SDS011;71284;50.918;7.092;2023-08-24T04:29:13;7.07;;;4.50;;
81841;SDS011;71284;50.918;7.092;2023-08-24T04:31:40;3.80;;;3.50;;
81841;SDS011;71284;50.918;7.092;2023-08-24T04:34:06;5.17;;;3.97;;
81841;SDS011;71284;50.918;7.092;2023-08-24T04:36:33;10.00;;;3.67;;
81841;SDS011;71284;50.918;7.092;2023-08-24T04:38:59;4.50;;;4.10;;
81841;SDS011;71284;50.918;7.092;2023-08-24T04:41:27;5.10;;;4.27;;
81841;SDS011;71284;50.918;7.092;2023-08-24T04:43:53;4.47;;;4.07;;
81841;SDS011;71284;50.918;7.092;2023-08-24T04:46:19;10.40;;;4.07;;
81841;SDS011;71284;50.918;7.092;2023-08-24T04:48:46;10.33;;;5.50;;
81841;SDS011;71284;50.918;7.092;2023-08-24T04:51:12;11.27;;;4.57;;
81841;SDS011;71284;50.918;7.092;2023-08-24T04:53:39;8.43;;;4.40;;
81841;SDS011;71284;50.918;7.092;2023-08-24T04:56:05;8.40;;;4.80;;
81841;SDS011;71284;50.918;7.092;2023-08-24T04:58:33;5.90;;;4.27;;
81841;SDS011;71284;50.918;7.092;2023-08-24T05:00:59;8.90;;;4.63;;
81841;SDS011;71284;50.918;7.092;2023-08-24T05:03:25;6.30;;;4.23;;
81841;SDS011;71284;50.918;7.092;2023-08-24T05:05:52;9.03;;;4.70;;
81841;SDS011;71284;50.918;7.092;2023-08-24T05:08:18;7.87;;;5.23;;
81841;SDS011;71284;50.918;7.092;2023-08-24T05:10:45;5.67;;;5.10;;
81841;SDS011;71284;50.918;7.092;2023-08-24T05:13:12;6.43;;;5.13;;
81841;SDS011;71284;50.918;7.092;2023-08-24T05:15:38;9.20;;;5.90;;
81841;SDS011;71284;50.918;7.092;2023-08-24T05:18:05;9.00;;;5.53;;
81841;SDS011;71284;50.918;7.092;2023-08-24T05:20:32;8.33;;;5.40;;
81841;SDS011;71284;50.918;7.092;2023-08-24T05:22:58;5.40;;;4.90;;
81841;SDS011;71284;50.918;7.092;2023-08-24T05:25:25;12.70;;;6.50;;
81841;SDS011;71284;50.918;7.092;2023-08-24T05:27:51;7.70;;;5.20;;
81841;SDS011;71284;50.918;7.092;2023-08-24T05:30:18;10.30;;;5.63;;
81841;SDS011;71284;50.918;7.092;2023-08-24T05:32:44;14.07;;;6.30;;
81841;SDS011;71284;50.918;7.092;2023-08-24T05:35:11;11.83;;;6.23;;
81841;SDS011;71284;50.918;7.092;2023-08-24T05:37:38;15.23;;;5.90;;
81841;SDS011;71284;50.918;7.092;2023-08-24T05:40:04;18.70;;;6.93;;
81841;SDS011;71284;50.918;7.092;2023-08-24T05:42:31;6.77;;;6.17;;
81841;SDS011;71284;50.918;7.092;2023-08-24T05:44:58;12.87;;;5.87;;
81841;SDS011;71284;50.918;7.092;2023-08-24T05:47:24;13.80;;;6.83;;
81841;SDS011;71284;50.918;7.092;2023-08-24T05:49:51;14.70;;;7.40;;
81841;SDS011;71284;50.918;7.092;2023-08-24T05:52:18;13.07;;;7.10;;
81841;SDS011;71284;50.918;7.092;2023-08-24T05:54:44;11.17;;;7.33;;
81841;SDS011;71284;50.918;7.092;2023-08-24T05:57:11;12.03;;;7.13;;
81841;SDS011;71284;50.918;7.092;2023-08-24T05:59:37;14.03;;;7.00;;
81841;SDS011;71284;50.918;7.092;2023-08-24T06:02:04;8.87;;;6.43;;
81841;SDS011;71284;50.918;7.092;2023-08-24T06:04:31;8.93;;;6.20;;
81841;SDS011;71284;50.918;7.092;2023-08-24T06:06:57;11.97;;;6.07;;
81841;SDS011;71284;50.918;7.092;2023-08-24T06:09:24;9.40;;;5.33;;
81841;SDS011;71284;50.918;7.092;2023-08-24T06:11:50;7.77;;;5.77;;
81841;SDS011;71284;50.918;7.092;2023-08-24T06:14:17;7.00;;;5.60;;
81841;SDS011;71284;50.918;7.092;2023-08-24T06:16:43;7.63;;;5.10;;
81841;SDS011;71284;50.918;7.092;2023-08-24T06:19:10;11.57;;;6.40;;
81841;SDS011;71284;50.918;7.092;2023-08-24T06:21:37;10.30;;;5.20;;
81841;SDS011;71284;50.918;7.092;2023-08-24T06:24:03;11.40;;;6.17;;
81841;SDS011;71284;50.918;7.092;2023-08-24T06:26:30;5.90;;;5.13;;
81841;SDS011;71284;50.918;7.092;2023-08-24T06:28:56;13.63;;;6.57;;
81841;SDS011;71284;50.918;7.092;2023-08-24T06:31:23;7.40;;;5.27;;
81841;SDS011;71284;50.918;7.092;2023-08-24T06:33:50;9.73;;;5.37;;
81841;SDS011;71284;50.918;7.092;2023-08-24T06:36:16;9.17;;;5.43;;
81841;SDS011;71284;50.918;7.092;2023-08-24T06:38:43;12.00;;;6.60;;
81841;SDS011;71284;50.918;7.092;2023-08-24T06:41:09;5.30;;;4.80;;
81841;SDS011;71284;50.918;7.092;2023-08-24T06:43:36;7.23;;;5.27;;
81841;SDS011;71284;50.918;7.092;2023-08-24T06:46:03;5.63;;;4.70;;
81841;SDS011;71284;50.918;7.092;2023-08-24T06:48:29;9.93;;;4.83;;
81841;SDS011;71284;50.918;7.092;2023-08-24T06:50:56;4.30;;;4.00;;
81841;SDS011;71284;50.918;7.092;2023-08-24T06:53:22;5.37;;;4.67;;
81841;SDS011;71284;50.918;7.092;2023-08-24T06:55:53;5.10;;;4.67;;
81841;SDS011;71284;50.918;7.092;2023-08-24T06:58:16;4.80;;;4.00;;
81841;SDS011;71284;50.918;7.092;2023-08-24T07:00:42;6.97;;;3.53;;
81841;SDS011;71284;50.918;7.092;2023-08-24T07:03:09;4.40;;;3.93;;
81841;SDS011;71284;50.918;7.092;2023-08-24T07:05:35;4.60;;;3.80;;
81841;SDS011;71284;50.918;7.092;2023-08-24T07:08:02;5.73;;;3.40;;
81841;SDS011;71284;50.918;7.092;2023-08-24T07:10:29;4.57;;;3.70;;
81841;SDS011;71284;50.918;7.092;2023-08-24T07:12:55;4.17;;;3.73;;
81841;SDS011;71284;50.918;7.092;2023-08-24T07:15:22;6.20;;;4.10;;
81841;SDS011;71284;50.918;7.092;2023-08-24T07:17:49;4.10;;;3.90;;
81841;SDS011;71284;50.918;7.092;2023-08-24T07:20:15;10.87;;;3.70;;
81841;SDS011;71284;50.918;7.092;2023-08-24T07:22:42;10.87;;;4.70;;
81841;SDS011;71284;50.918;7.092;2023-08-24T07:25:08;14.23;;;3.80;;
81841;SDS011;71284;50.918;7.092;2023-08-24T07:27:35;6.60;;;4.23;;
81841;SDS011;71284;50.918;7.092;2023-08-24T07:30:02;3.57;;;3.07;;
81841;SDS011;71284;50.918;7.092;2023-08-24T07:32:29;4.77;;;3.30;;
81841;SDS011;71284;50.918;7.092;2023-08-24T07:34:55;4.67;;;4.20;;
81841;SDS011;71284;50.918;7.092;2023-08-24T07:37:22;3.50;;;3.20;;
81841;SDS011;71284;50.918;7.092;2023-08-24T07:39:48;8.00;;;3.30;;
81841;SDS011;71284;50.918;7.092;2023-08-24T07:42:15;7.23;;;3.20;;
81841;SDS011;71284;50.918;7.092;2023-08-24T07:44:42;3.90;;;3.60;;
81841;SDS011;71284;50.918;7.092;2023-08-24T07:47:08;5.33;;;2.97;;
81841;SDS011;71284;50.918;7.092;2023-08-24T07:49:35;5.73;;;3.80;;
81841;SDS011;71284;50.918;7.092;2023-08-24T07:52:01;8.03;;;4.10;;
81841;SDS011;71284;50.918;7.092;2023-08-24T07:54:28;3.80;;;3.20;;
81841;SDS011;71284;50.918;7.092;2023-08-24T07:56:55;3.77;;;3.47;;
81841;SDS011;71284;50.918;7.092;2023-08-24T07:59:21;4.13;;;2.83;;
81841;SDS011;71284;50.918;7.092;2023-08-24T08:01:48;8.70;;;3.00;;
81841;SDS011;71284;50.918;7.092;2023-08-24T08:04:14;4.23;;;3.10;;
81841;SDS011;71284;50.918;7.092;2023-08-24T08:06:41;3.80;;;3.40;;
81841;SDS011;71284;50.918;7.092;2023-08-24T08:09:08;9.53;;;2.70;;
81841;SDS011;71284;50.918;7.092;2023-08-24T08:11:34;6.47;;;3.07;;
81841;SDS011;71284;50.918;7.092;2023-08-24T08:14:01;3.67;;;2.53;;
81841;SDS011;71284;50.918;7.092;2023-08-24T08:16:27;3.57;;;2.17;;
81841;SDS011;71284;50.918;7.092;2023-08-24T08:18:54;3.80;;;2.77;;
81841;SDS011;71284;50.918;7.092;2023-08-24T08:21:20;4.83;;;2.77;;
81841;SDS011;71284;50.918;7.092;2023-08-24T08:23:47;2.60;;;2.30;;
81841;SDS011;71284;50.918;7.092;2023-08-24T08:26:14;4.80;;;2.87;;
81841;SDS011;71284;50.918;7.092;2023-08-24T08:28:40;3.87;;;3.20;;
81841;SDS011;71284;50.918;7.092;2023-08-24T08:31:07;9.77;;;3.03;;
81841;SDS011;71284;50.918;7.092;2023-08-24T08:33:33;2.80;;;2.30;;
81841;SDS011;71284;50.918;7.092;2023-08-24T08:36:00;3.10;;;2.90;;
81841;SDS011;71284;50.918;7.092;2023-08-24T08:38:27;3.27;;;2.70;;
81841;SDS011;71284;50.918;7.092;2023-08-24T08:40:53;5.77;;;2.57;;
81841;SDS011;71284;50.918;7.092;2023-08-24T08:43:21;3.20;;;2.90;;
81841;SDS011;71284;50.918;7.092;2023-08-24T08:45:48;4.23;;;3.13;;
81841;SDS011;71284;50.918;7.092;2023-08-24T08:48:14;3.57;;;3.30;;
81841;SDS011;71284;50.918;7.092;2023-08-24T08:50:40;2.63;;;2.43;;
81841;SDS011;71284;50.918;7.092;2023-08-24T08:53:07;6.00;;;4.10;;
81841;SDS011;71284;50.918;7.092;2023-08-24T08:55:34;4.00;;;2.87;;
81841;SDS011;71284;50.918;7.092;2023-08-24T08:58:00;3.47;;;3.03;;
81841;SDS011;71284;50.918;7.092;2023-08-24T09:00:27;4.73;;;2.70;;
81841;SDS011;71284;50.918;7.092;2023-08-24T09:02:53;6.23;;;3.60;;
81841;SDS011;71284;50.918;7.092;2023-08-24T09:05:20;2.97;;;2.67;;
81841;SDS011;71284;50.918;7.092;2023-08-24T09:07:47;2.90;;;2.70;;
81841;SDS011;71284;50.918;7.092;2023-08-24T09:10:13;2.77;;;2.57;;
81841;SDS011;71284;50.918;7.092;2023-08-24T09:12:40;4.13;;;2.30;;
81841;SDS011;71284;50.918;7.092;2023-08-24T09:15:06;2.93;;;2.83;;
81841;SDS011;71284;50.918;7.092;2023-08-24T09:17:33;2.83;;;2.00;;
81841;SDS011;71284;50.918;7.092;2023-08-24T09:20:01;4.17;;;2.30;;
81841;SDS011;71284;50.918;7.092;2023-08-24T09:22:27;3.63;;;2.70;;
81841;SDS011;71284;50.918;7.092;2023-08-24T09:24:53;3.60;;;2.40;;
81841;SDS011;71284;50.918;7.092;2023-08-24T09:27:20;5.43;;;2.53;;
81841;SDS011;71284;50.918;7.092;2023-08-24T09:29:51;6.83;;;2.70;;
81841;SDS011;71284;50.918;7.092;2023-08-24T09:32:22;11.57;;;2.70;;
81841;SDS011;71284;50.918;7.092;2023-08-24T09:34:49;2.60;;;2.10;;
81841;SDS011;71284;50.918;7.092;2023-08-24T09:37:15;2.77;;;2.57;;
81841;SDS011;71284;50.918;7.092;2023-08-24T09:39:42;2.53;;;2.33;;
81841;SDS011;71284;50.918;7.092;2023-08-24T09:42:08;3.20;;;2.30;;
81841;SDS011;71284;50.918;7.092;2023-08-24T09:44:35;2.73;;;2.50;;
81841;SDS011;71284;50.918;7.092;2023-08-24T09:47:01;2.23;;;2.07;;
81841;SDS011;71284;50.918;7.092;2023-08-24T09:49:28;4.10;;;2.37;;
81841;SDS011;71284;50.918;7.092;2023-08-24T09:51:55;3.00;;;2.57;;
81841;SDS011;71284;50.918;7.092;2023-08-24T09:54:21;3.47;;;2.00;;
81841;SDS011;71284;50.918;7.092;2023-08-24T09:56:48;2.27;;;2.17;;
81841;SDS011;71284;50.918;7.092;2023-08-24T09:59:15;7.90;;;2.40;;
81841;SDS011;71284;50.918;7.092;2023-08-24T10:01:44;2.43;;;2.23;;
81841;SDS011;71284;50.918;7.092;2023-08-24T10:04:10;3.67;;;2.27;;
81841;SDS011;71284;50.918;7.092;2023-08-24T10:06:38;3.30;;;3.00;;
81841;SDS011;71284;50.918;7.092;2023-08-24T10:09:04;3.33;;;2.97;;
81841;SDS011;71284;50.918;7.092;2023-08-24T10:11:30;2.90;;;2.70;;
81841;SDS011;71284;50.918;7.092;2023-08-24T10:14:04;11.03;;;2.70;;
81841;SDS011;71284;50.918;7.092;2023-08-24T10:16:29;4.70;;;2.47;;
81841;SDS011;71284;50.918;7.092;2023-08-24T10:18:56;2.73;;;2.53;;
81841;SDS011;71284;50.918;7.092;2023-08-24T10:21:23;3.57;;;2.67;;
81841;SDS011;71284;50.918;7.092;2023-08-24T10:23:51;2.90;;;2.23;;
81841;SDS011;71284;50.918;7.092;2023-08-24T10:26:17;2.40;;;1.87;;
81841;SDS011;71284;50.918;7.092;2023-08-24T10:28:44;3.73;;;2.80;;
81841;SDS011;71284;50.918;7.092;2023-08-24T10:31:10;5.70;;;3.20;;
81841;SDS011;71284;50.918;7.092;2023-08-24T10:33:37;3.20;;;1.83;;
81841;SDS011;71284;50.918;7.092;2023-08-24T10:36:04;3.87;;;2.83;;
81841;SDS011;71284;50.918;7.092;2023-08-24T10:38:33;2.60;;;2.50;;
81841;SDS011;71284;50.918;7.092;2023-08-24T10:41:02;4.97;;;2.47;;
81841;SDS011;71284;50.918;7.092;2023-08-24T10:43:27;3.67;;;3.00;;
81841;SDS011;71284;50.918;7.092;2023-08-24T10:45:54;4.60;;;2.17;;
81841;SDS011;71284;50.918;7.092;2023-08-24T10:48:23;6.50;;;2.20;;
81841;SDS011;71284;50.918;7.092;2023-08-24T10:53:37;5.00;;;2.60;;
81841;SDS011;71284;50.918;7.092;2023-08-24T10:58:35;5.00;;;2.53;;
81841;SDS011;71284;50.918;7.092;2023-08-24T11:01:02;3.30;;;2.00;;
81841;SDS011;71284;50.918;7.092;2023-08-24T11:03:32;5.93;;;2.10;;
81841;SDS011;71284;50.918;7.092;2023-08-24T11:05:58;1.80;;;1.80;;
81841;SDS011;71284;50.918;7.092;2023-08-24T11:11:03;4.73;;;2.60;;
81841;SDS011;71284;50.918;7.092;2023-08-24T11:13:29;3.57;;;1.73;;
81841;SDS011;71284;50.918;7.092;2023-08-24T11:15:56;4.93;;;2.37;;
81841;SDS011;71284;50.918;7.092;2023-08-24T11:18:23;2.73;;;2.33;;
81841;SDS011;71284;50.918;7.092;2023-08-24T11:20:50;1.93;;;1.77;;
81841;SDS011;71284;50.918;7.092;2023-08-24T11:23:16;2.67;;;2.47;;
81841;SDS011;71284;50.918;7.092;2023-08-24T11:25:42;2.47;;;2.03;;
81841;SDS011;71284;50.918;7.092;2023-08-24T11:28:09;2.53;;;1.90;;
81841;SDS011;71284;50.918;7.092;2023-08-24T11:30:35;7.80;;;2.73;;
81841;SDS011;71284;50.918;7.092;2023-08-24T11:33:02;4.30;;;2.40;;
81841;SDS011;71284;50.918;7.092;2023-08-24T11:35:29;3.80;;;2.43;;
81841;SDS011;71284;50.918;7.092;2023-08-24T11:37:56;2.40;;;2.30;;
81841;SDS011;71284;50.918;7.092;2023-08-24T11:40:22;2.10;;;2.00;;
81841;SDS011;71284;50.918;7.092;2023-08-24T11:42:52;2.13;;;2.00;;
81841;SDS011;71284;50.918;7.092;2023-08-24T11:45:17;4.63;;;2.47;;
81841;SDS011;71284;50.918;7.092;2023-08-24T11:47:43;7.90;;;2.33;;
81841;SDS011;71284;50.918;7.092;2023-08-24T11:50:10;5.90;;;2.67;;
81841;SDS011;71284;50.918;7.092;2023-08-24T11:52:39;3.33;;;2.40;;
81841;SDS011;71284;50.918;7.092;2023-08-24T11:55:05;5.57;;;2.53;;
81841;SDS011;71284;50.918;7.092;2023-08-24T11:57:33;4.20;;;2.53;;
81841;SDS011;71284;50.918;7.092;2023-08-24T11:59:59;4.50;;;2.10;;
81841;SDS011;71284;50.918;7.092;2023-08-24T12:02:26;3.17;;;2.60;;
81841;SDS011;71284;50.918;7.092;2023-08-24T12:04:53;7.33;;;2.53;;
81841;SDS011;71284;50.918;7.092;2023-08-24T12:07:20;3.57;;;2.70;;
81841;SDS011;71284;50.918;7.092;2023-08-24T12:09:46;2.93;;;2.73;;
81841;SDS011;71284;50.918;7.092;2023-08-24T12:12:13;4.80;;;2.63;;
81841;SDS011;71284;50.918;7.092;2023-08-24T12:14:41;11.37;;;2.60;;
81841;SDS011;71284;50.918;7.092;2023-08-24T12:17:08;3.23;;;2.60;;
81841;SDS011;71284;50.918;7.092;2023-08-24T12:19:34;5.00;;;2.40;;
81841;SDS011;71284;50.918;7.092;2023-08-24T12:22:00;5.17;;;2.93;;
81841;SDS011;71284;50.918;7.092;2023-08-24T12:24:27;5.70;;;3.27;;
81841;SDS011;71284;50.918;7.092;2023-08-24T12:26:55;6.70;;;2.77;;
81841;SDS011;71284;50.918;7.092;2023-08-24T12:29:21;2.50;;;2.30;;
81841;SDS011;71284;50.918;7.092;2023-08-24T12:31:48;2.40;;;2.20;;
81841;SDS011;71284;50.918;7.092;2023-08-24T12:34:15;4.70;;;2.97;;
81841;SDS011;71284;50.918;7.092;2023-08-24T12:36:41;2.50;;;2.30;;
81841;SDS011;71284;50.918;7.092;2023-08-24T12:39:07;6.10;;;3.00;;
81841;SDS011;71284;50.918;7.092;2023-08-24T12:41:34;5.50;;;2.87;;
81841;SDS011;71284;50.918;7.092;2023-08-24T12:44:01;7.77;;;3.30;;
81841;SDS011;71284;50.918;7.092;2023-08-24T12:46:27;5.17;;;3.10;;
81841;SDS011;71284;50.918;7.092;2023-08-24T12:48:54;7.87;;;2.47;;
81841;SDS011;71284;50.918;7.092;2023-08-24T12:51:20;2.73;;;2.50;;
81841;SDS011;71284;50.918;7.092;2023-08-24T12:53:47;3.83;;;2.67;;
81841;SDS011;71284;50.918;7.092;2023-08-24T12:56:13;8.33;;;3.77;;
81841;SDS011;71284;50.918;7.092;2023-08-24T12:58:40;10.77;;;3.80;;
81841;SDS011;71284;50.918;7.092;2023-08-24T13:01:07;5.17;;;3.27;;
81841;SDS011;71284;50.918;7.092;2023-08-24T13:03:33;4.77;;;3.50;;
81841;SDS011;71284;50.918;7.092;2023-08-24T13:06:00;11.07;;;4.70;;
81841;SDS011;71284;50.918;7.092;2023-08-24T13:08:26;4.10;;;3.27;;
81841;SDS011;71284;50.918;7.092;2023-08-24T13:10:53;4.80;;;3.67;;
81841;SDS011;71284;50.918;7.092;2023-08-24T13:13:20;6.73;;;4.10;;
81841;SDS011;71284;50.918;7.092;2023-08-24T13:15:48;7.07;;;3.33;;
81841;SDS011;71284;50.918;7.092;2023-08-24T13:18:14;7.53;;;3.43;;
81841;SDS011;71284;50.918;7.092;2023-08-24T13:20:40;7.00;;;3.27;;
81841;SDS011;71284;50.918;7.092;2023-08-24T13:23:07;13.03;;;3.07;;
81841;SDS011;71284;50.918;7.092;2023-08-24T13:25:33;6.93;;;3.13;;
81841;SDS011;71284;50.918;7.092;2023-08-24T13:28:01;4.47;;;3.73;;
81841;SDS011;71284;50.918;7.092;2023-08-24T13:30:27;9.77;;;3.40;;
81841;SDS011;71284;50.918;7.092;2023-08-24T13:32:54;3.90;;;3.30;;
81841;SDS011;71284;50.918;7.092;2023-08-24T13:35:20;6.10;;;3.00;;
81841;SDS011;71284;50.918;7.092;2023-08-24T13:37:47;6.33;;;2.77;;
81841;SDS011;71284;50.918;7.092;2023-08-24T13:40:14;7.27;;;3.87;;
81841;SDS011;71284;50.918;7.092;2023-08-24T13:42:40;12.20;;;3.50;;
81841;SDS011;71284;50.918;7.092;2023-08-24T13:45:07;9.00;;;3.67;;
81841;SDS011;71284;50.918;7.092;2023-08-24T13:47:34;2.73;;;2.53;;
81841;SDS011;71284;50.918;7.092;2023-08-24T13:50:00;7.23;;;2.73;;
81841;SDS011;71284;50.918;7.092;2023-08-24T13:52:27;10.20;;;3.53;;
81841;SDS011;71284;50.918;7.092;2023-08-24T13:54:53;5.13;;;3.23;;
81841;SDS011;71284;50.918;7.092;2023-08-24T13:57:20;8.87;;;3.10;;
81841;SDS011;71284;50.918;7.092;2023-08-24T13:59:47;5.80;;;2.80;;
81841;SDS011;71284;50.918;7.092;2023-08-24T14:02:13;7.10;;;2.80;;
81841;SDS011;71284;50.918;7.092;2023-08-24T14:04:40;7.00;;;2.53;;
81841;SDS011;71284;50.918;7.092;2023-08-24T14:07:06;5.90;;;2.80;;
81841;SDS011;71284;50.918;7.092;2023-08-24T14:09:33;3.10;;;2.83;;
81841;SDS011;71284;50.918;7.092;2023-08-24T14:11:59;3.63;;;2.13;;
81841;SDS011;71284;50.918;7.092;2023-08-24T14:14:26;9.33;;;2.50;;
81841;SDS011;71284;50.918;7.092;2023-08-24T14:16:54;5.17;;;2.27;;
81841;SDS011;71284;50.918;7.092;2023-08-24T14:19:20;3.60;;;3.30;;
81841;SDS011;71284;50.918;7.092;2023-08-24T14:21:47;4.03;;;2.50;;
81841;SDS011;71284;50.918;7.092;2023-08-24T14:24:13;4.37;;;2.60;;
81841;SDS011;71284;50.918;7.092;2023-08-24T14:26:40;4.90;;;3.20;;
81841;SDS011;71284;50.918;7.092;2023-08-24T14:29:06;11.40;;;3.00;;
81841;SDS011;71284;50.918;7.092;2023-08-24T14:31:33;3.43;;;3.13;;
81841;SDS011;71284;50.918;7.092;2023-08-24T14:33:59;14.40;;;3.50;;
81841;SDS011;71284;50.918;7.092;2023-08-24T14:36:28;10.03;;;3.10;;
81841;SDS011;71284;50.918;7.092;2023-08-24T14:38:53;4.50;;;2.77;;
81841;SDS011;71284;50.918;7.092;2023-08-24T14:41:19;6.60;;;3.13;;
81841;SDS011;71284;50.918;7.092;2023-08-24T14:43:46;4.40;;;2.63;;
81841;SDS011;71284;50.918;7.092;2023-08-24T14:46:12;5.40;;;3.00;;
81841;SDS011;71284;50.918;7.092;2023-08-24T14:48:39;4.53;;;3.23;;
81841;SDS011;71284;50.918;7.092;2023-08-24T14:51:06;18.93;;;4.27;;